Time;durP1;ratioP1;P1;durP2;ratioP2;P2;SDS_P1;SDS_P2;PMS_P1;PMS_P2;Temp;Humidity;BMP_temperature;BMP_pressure;BME280_temperature;BME280_humidity;BME280_pressure;Samples;Min_cycle;Max_cycle;Signal;HPM_P1;HPM_P2
2024/01/17 00:01:42;;;;;;;;;;;;;;;;;;6280581;28;19924;-69
2024/01/17 00:04:46;;;;;;;;;;;;;;;;;;6282781;28;20596;-69
2024/01/17 00:07:47;;;;;;;;;;;;;;;;;;6282641;28;20225;-69
2024/01/17 00:10:48;;;;;;;;;;;;;;;;;;6282157;28;19936;-69
2024/01/17 00:13:48;;;;;;;;;;;;;;;;;;6282403;28;19924;-69
2024/01/17 00:16:49;;;;;;;;;;;;;;;;;;6286134;28;19925;-69
2024/01/17 00:19:50;;;;;;;;;;;;;;;;;;6278189;28;19929;-68
2024/01/17 00:22:50;;;;;;;;;;;;;;;;;;6282109;28;19935;-68
2024/01/17 00:25:51;;;;;;;;;;;;;;;;;;6283265;28;19935;-69
2024/01/17 00:28:52;;;;;;;;;;;;;;;;;;6283850;28;19921;-68
2024/01/17 00:31:53;;;;;;;;;;;;;;;;;;6280394;28;20394;-69
2024/01/17 00:34:53;;;;;;;;;;;;;;;;;;6280415;28;20398;-69
2024/01/17 00:37:54;;;;;;;;;;;;;;;;;;6279686;28;19960;-67
2024/01/17 00:40:54;;;;;;;;;;;;;;;;;;6284450;28;19931;-69
2024/01/17 00:43:55;;;;;;;;;;;;;;;;;;6280638;28;19931;-68
2024/01/17 00:46:56;;;;;;;;;;;;;;;;;;6288734;28;19993;-68
2024/01/17 00:49:56;;;;;;;;;;;;;;;;;;6287285;28;20375;-68
2024/01/17 00:52:57;;;;;;;;;;;;;;;;;;6287073;28;19927;-68
2024/01/17 00:55:57;;;;;;;;;;;;;;;;;;6296068;28;19920;-68
2024/01/17 00:58:58;;;;;;;;;;;;;;;;;;6293564;28;20423;-69
2024/01/17 01:02:01;;;;;;;;;;;;;;;;;;6293972;28;19927;-68
2024/01/17 01:05:02;;;;;;;;;;;;;;;;;;6294876;28;19956;-68
2024/01/17 01:08:03;;;;;;;;;;;;;;;;;;6294876;28;19982;-68
2024/01/17 01:11:04;;;;;;;;;;;;;;;;;;6289977;28;20630;-68
2024/01/17 01:14:05;;;;;;;;;;;;;;;;;;6296486;28;19920;-68
2024/01/17 01:17:05;;;;;;;;;;;;;;;;;;6294151;28;19920;-68
2024/01/17 01:20:07;;;;;;;;;;;;;;;;;;6293109;28;19924;-67
2024/01/17 01:23:08;;;;;;;;;;;;;;;;;;6293815;28;19920;-68
2024/01/17 01:26:08;;;;;;;;;;;;;;;;;;6293027;28;20375;-67
2024/01/17 01:29:09;;;;;;;;;;;;;;;;;;6293798;28;19920;-69
2024/01/17 01:32:10;;;;;;;;;;;;;;;;;;6293308;28;20391;-68
2024/01/17 01:35:10;;;;;;;;;;;;;;;;;;6293882;28;19927;-69
2024/01/17 01:38:11;;;;;;;;;;;;;;;;;;6293655;28;19935;-68
2024/01/17 01:41:11;;;;;;;;;;;;;;;;;;6292965;28;19932;-68
2024/01/17 01:44:12;;;;;;;;;;;;;;;;;;6293982;28;19924;-67
2024/01/17 01:47:13;;;;;;;;;;;;;;;;;;6293867;28;19990;-67
2024/01/17 01:50:14;;;;;;;;;;;;;;;;;;6291924;28;19930;-68
2024/01/17 01:53:14;;;;;;;;;;;;;;;;;;6290793;28;20437;-68
2024/01/17 01:56:19;;;;;;;;;;;;;;;;;;6292770;28;19931;-67
2024/01/17 01:59:20;;;;;;;;;;;;;;;;;;6291069;28;19936;-67
2024/01/17 02:02:21;;;;;;;;;;;;;;;;;;6293278;28;19928;-67
2024/01/17 02:05:22;;;;;;;;;;;;;;;;;;6293389;28;19931;-68
2024/01/17 02:08:23;;;;;;;;;;;;;;;;;;6293267;28;19920;-68
2024/01/17 02:11:24;;;;;;;;;;;;;;;;;;6291901;28;19920;-67
2024/01/17 02:14:25;;;;;;;;;;;;;;;;;;6291867;28;19921;-68
2024/01/17 02:17:25;;;;;;;;;;;;;;;;;;6291746;28;19920;-69
2024/01/17 02:20:26;;;;;;;;;;;;;;;;;;6290974;28;20355;-68
2024/01/17 02:23:27;;;;;;;;;;;;;;;;;;6291027;28;20391;-68
2024/01/17 02:26:28;;;;;;;;;;;;;;;;;;6291989;28;19970;-68
2024/01/17 02:29:29;;;;;;;;;;;;;;;;;;6292244;28;19925;-68
2024/01/17 02:32:29;;;;;;;;;;;;;;;;;;6291258;28;19925;-67
2024/01/17 02:35:31;;;;;;;;;;;;;;;;;;6292035;28;19978;-68
2024/01/17 02:38:33;;;;;;;;;;;;;;;;;;6292623;28;19921;-67
2024/01/17 02:41:33;;;;;;;;;;;;;;;;;;6290942;28;19927;-68
2024/01/17 02:44:34;;;;;;;;;;;;;;;;;;6292363;28;19979;-68
2024/01/17 02:47:34;;;;;;;;;;;;;;;;;;6292952;28;19995;-69
2024/01/17 02:50:35;;;;;;;;;;;;;;;;;;6289043;28;19927;-68
2024/01/17 02:53:36;;;;;;;;;;;;;;;;;;6290537;28;19920;-68
2024/01/17 02:56:36;;;;;;;;;;;;;;;;;;6292595;28;20352;-68
2024/01/17 02:59:37;;;;;;;;;;;;;;;;;;6291361;28;19939;-68
2024/01/17 03:02:38;;;;;;;;;;;;;;;;;;6291472;28;20030;-68
2024/01/17 03:05:39;;;;;;;;;;;;;;;;;;6293930;28;19936;-68
2024/01/17 03:08:40;;;;;;;;;;;;;;;;;;6288787;28;19982;-68
2024/01/17 03:11:40;;;;;;;;;;;;;;;;;;6291079;28;19925;-68
2024/01/17 03:14:41;;;;;;;;;;;;;;;;;;6291636;28;19929;-66
2024/01/17 03:17:42;;;;;;;;;;;;;;;;;;6291387;28;19924;-69
2024/01/17 03:20:42;;;;;;;;;;;;;;;;;;6289858;28;20290;-68
2024/01/17 03:23:43;;;;;;;;;;;;;;;;;;6291824;28;19942;-70
2024/01/17 03:26:44;;;;;;;;;;;;;;;;;;6291687;28;19926;-67
2024/01/17 03:29:44;;;;;;;;;;;;;;;;;;6290168;28;19920;-68
2024/01/17 03:32:45;;;;;;;;;;;;;;;;;;6289633;28;19920;-68
2024/01/17 03:35:46;;;;;;;;;;;;;;;;;;6291019;28;19920;-67
2024/01/17 03:38:46;;;;;;;;;;;;;;;;;;6291142;28;20291;-68
2024/01/17 03:41:47;;;;;;;;;;;;;;;;;;6290566;28;19927;-67
2024/01/17 03:44:48;;;;;;;;;;;;;;;;;;6288417;28;20011;-68
2024/01/17 03:47:48;;;;;;;;;;;;;;;;;;6289234;28;19966;-67
2024/01/17 03:50:49;;;;;;;;;;;;;;;;;;6287874;28;20412;-68
2024/01/17 03:53:49;;;;;;;;;;;;;;;;;;6290563;28;19924;-68
2024/01/17 03:56:52;;;;;;;;;;;;;;;;;;6289425;28;20380;-69
2024/01/17 03:59:52;;;;;;;;;;;;;;;;;;6288306;28;19921;-68
2024/01/17 04:02:53;;;;;;;;;;;;;;;;;;6290098;28;19928;-70
2024/01/17 04:05:54;;;;;;;;;;;;;;;;;;6290878;28;20190;-67
2024/01/17 04:08:55;;;;;;;;;;;;;;;;;;6287376;28;19920;-68
2024/01/17 04:11:56;;;;;;;;;;;;;;;;;;6287498;28;19970;-67
2024/01/17 04:14:57;;;;;;;;;;;;;;;;;;6290158;28;19920;-70
2024/01/17 04:17:57;;;;;;;;;;;;;;;;;;6290216;28;19925;-67
2024/01/17 04:21:00;;;;;;;;;;;;;;;;;;6288503;28;19921;-67
2024/01/17 04:24:01;;;;;;;;;;;;;;;;;;6289222;28;20604;-67
2024/01/17 04:27:02;;;;;;;;;;;;;;;;;;6288255;28;19928;-68
2024/01/17 04:30:03;;;;;;;;;;;;;;;;;;6289858;28;20019;-68
2024/01/17 04:33:04;;;;;;;;;;;;;;;;;;6291802;28;19931;-67
2024/01/17 04:36:04;;;;;;;;;;;;;;;;;;6286641;28;19924;-68
2024/01/17 04:39:05;;;;;;;;;;;;;;;;;;6289266;28;19931;-67
2024/01/17 04:42:06;;;;;;;;;;;;;;;;;;6289106;28;19978;-67
2024/01/17 04:45:07;;;;;;;;;;;;;;;;;;6290122;28;20485;-67
2024/01/17 04:48:09;;;;;;;;;;;;;;;;;;6290081;28;19939;-68
2024/01/17 04:51:10;;;;;;;;;;;;;;;;;;6279496;28;19927;-67
2024/01/17 04:54:11;;;;;;;;;;;;;;;;;;6291857;28;19920;-67
2024/01/17 04:57:13;;;;;;;;;;;;;;;;;;6290403;28;19930;-67
2024/01/17 05:00:15;;;;;;;;;;;;;;;;;;6287101;28;20371;-66
2024/01/17 05:03:16;;;;;;;;;;;;;;;;;;6290555;28;20781;-67
2024/01/17 05:06:16;;;;;;;;;;;;;;;;;;6289728;28;20038;-68
2024/01/17 05:09:17;;;;;;;;;;;;;;;;;;6289262;28;20359;-67
2024/01/17 05:12:18;;;;;;;;;;;;;;;;;;6289377;28;19924;-69
2024/01/17 05:15:19;;;;;;;;;;;;;;;;;;6290242;28;20284;-66
2024/01/17 05:18:19;;;;;;;;;;;;;;;;;;6288980;28;19935;-67
2024/01/17 05:21:20;;;;;;;;;;;;;;;;;;6289081;28;20679;-67
2024/01/17 05:24:20;;;;;;;;;;;;;;;;;;6289584;28;20283;-68
2024/01/17 05:27:21;;;;;;;;;;;;;;;;;;6289949;28;20303;-67
2024/01/17 05:30:23;;;;;;;;;;;;;;;;;;6288308;28;19920;-68
2024/01/17 05:33:24;;;;;;;;;;;;;;;;;;6288419;28;19994;-68
2024/01/17 05:36:24;;;;;;;;;;;;;;;;;;6289540;28;20341;-67
2024/01/17 05:39:25;;;;;;;;;;;;;;;;;;6290222;28;19967;-67
2024/01/17 05:42:26;;;;;;;;;;;;;;;;;;6291942;28;20335;-67
2024/01/17 05:45:27;;;;;;;;;;;;;;;;;;6293835;28;19960;-64
2024/01/17 05:48:27;;;;;;;;;;;;;;;;;;6285127;28;19975;-64
2024/01/17 05:51:28;;;;;;;;;;;;;;;;;;6285597;28;20031;-64
2024/01/17 05:54:28;;;;;;;;;;;;;;;;;;6284406;28;20310;-64
2024/01/17 05:57:29;;;;;;;;;;;;;;;;;;6292802;28;19920;-63
2024/01/17 06:00:29;;;;;;;;;;;;;;;;;;6286718;28;19925;-64
2024/01/17 06:03:30;;;;;;;;;;;;;;;;;;6288040;28;19928;-64
2024/01/17 06:06:31;;;;;;;;;;;;;;;;;;6291113;28;20307;-64
2024/01/17 06:09:32;;;;;;;;;;;;;;;;;;6287356;28;19971;-64
2024/01/17 06:12:32;;;;;;;;;;;;;;;;;;6289806;28;19931;-64
2024/01/17 06:15:33;;;;;;;;;;;;;;;;;;6285007;28;20009;-65
2024/01/17 06:18:34;;;;;;;;;;;;;;;;;;6288664;28;19931;-63
2024/01/17 06:21:34;;;;;;;;;;;;;;;;;;6287925;28;19936;-64
2024/01/17 06:24:35;;;;;;;;;;;;;;;;;;6286607;28;20268;-64
2024/01/17 06:27:36;;;;;;;;;;;;;;;;;;6287302;28;19928;-64
2024/01/17 06:30:37;;;;;;;;;;;;;;;;;;6289256;28;19931;-64
2024/01/17 06:33:39;;;;;;;;;;;;;;;;;;6292246;28;19924;-63
2024/01/17 06:36:39;;;;;;;;;;;;;;;;;;6291054;28;20856;-65
2024/01/17 06:39:41;;;;;;;;;;;;;;;;;;6284150;28;19931;-66
2024/01/17 06:42:41;;;;;;;;;;;;;;;;;;6289992;28;19936;-64
2024/01/17 06:45:42;;;;;;;;;;;;;;;;;;6282426;28;19924;-64
2024/01/17 06:48:43;;;;;;;;;;;;;;;;;;6286533;28;19925;-64
2024/01/17 06:51:44;;;;;;;;;;;;;;;;;;6289577;28;20070;-63
2024/01/17 06:54:44;;;;;;;;;;;;;;;;;;6286153;28;19924;-63
2024/01/17 06:57:45;;;;;;;;;;;;;;;;;;6291589;28;19920;-67
2024/01/17 07:00:46;;;;;;;;;;;;;;;;;;6281705;28;19924;-65
2024/01/17 07:03:46;;;;;;;;;;;;;;;;;;6286808;28;20394;-63
2024/01/17 07:06:47;;;;;;;;;;;;;;;;;;6291988;28;19928;-64
2024/01/17 07:09:48;;;;;;;;;;;;;;;;;;6288607;28;20131;-65
2024/01/17 07:12:50;;;;;;;;;;;;;;;;;;6288253;28;19924;-63
2024/01/17 07:15:51;;;;;;;;;;;;;;;;;;6289204;28;19951;-63
2024/01/17 07:18:53;;;;;;;;;;;;;;;;;;6284016;28;19921;-64
2024/01/17 07:21:54;;;;;;;;;;;;;;;;;;6287773;28;19924;-64
2024/01/17 07:24:54;;;;;;;;;;;;;;;;;;6290845;28;20345;-63
2024/01/17 07:27:55;;;;;;;;;;;;;;;;;;6288720;28;19931;-64
2024/01/17 07:30:55;;;;;;;;;;;;;;;;;;6282499;28;19929;-69
2024/01/17 07:33:56;;;;;;;;;;;;;;;;;;6280776;28;19921;-63
2024/01/17 07:36:57;;;;;;;;;;;;;;;;;;6290111;28;19931;-64
2024/01/17 07:39:58;;;;;;;;;;;;;;;;;;6287429;28;19920;-64
2024/01/17 07:42:58;;;;;;;;;;;;;;;;;;6290188;28;20287;-63
2024/01/17 07:45:59;;;;;;;;;;;;;;;;;;6287376;28;20510;-64
2024/01/17 07:48:59;;;;;;;;;;;;;;;;;;6283224;28;20320;-66
2024/01/17 07:52:00;;;;;;;;;;;;;;;;;;6289407;28;19971;-64
2024/01/17 07:55:02;;;;;;;;;;;;;;;;;;6287301;28;19929;-63
2024/01/17 07:58:02;;;;;;;;;;;;;;;;;;6285714;28;20345;-64
2024/01/17 08:01:05;;;;;;;;;;;;;;;;;;6280973;28;19924;-67
2024/01/17 08:04:05;;;;;;;;;;;;;;;;;;6289600;28;20296;-64
2024/01/17 08:07:06;;;;;;;;;;;;;;;;;;6289419;28;19927;-65
2024/01/17 08:10:07;;;;;;;;;;;;;;;;;;6285329;28;19928;-64
2024/01/17 08:13:07;;;;;;;;;;;;;;;;;;6290120;28;19966;-64
2024/01/17 08:16:08;;;;;;;;;;;;;;;;;;6283672;28;19921;-64
2024/01/17 08:19:09;;;;;;;;;;;;;;;;;;6286930;28;19928;-63
2024/01/17 08:22:10;;;;;;;;;;;;;;;;;;6289349;28;20371;-63
2024/01/17 08:25:10;;;;;;;;;;;;;;;;;;6285593;28;19928;-63
2024/01/17 08:28:11;;;;;;;;;;;;;;;;;;6289048;28;19974;-63
2024/01/17 08:31:12;;;;;;;;;;;;;;;;;;6288383;28;19924;-64
2024/01/17 08:34:12;;;;;;;;;;;;;;;;;;6287196;28;19924;-64
2024/01/17 08:37:13;;;;;;;;;;;;;;;;;;6287026;28;19928;-63
2024/01/17 08:40:14;;;;;;;;;;;;;;;;;;6284130;28;19924;-63
2024/01/17 08:43:14;;;;;;;;;;;;;;;;;;6286731;28;19935;-64
2024/01/17 08:46:15;;;;;;;;;;;;;;;;;;6279150;28;19970;-64
2024/01/17 08:49:16;;;;;;;;;;;;;;;;;;6282147;28;19920;-67
2024/01/17 08:52:16;;;;;;;;;;;;;;;;;;6287249;28;19924;-63
2024/01/17 08:55:17;;;;;;;;;;;;;;;;;;6287072;28;19928;-66
2024/01/17 08:58:18;;;;;;;;;;;;;;;;;;6278957;28;20370;-65
2024/01/17 09:01:18;;;;;;;;;;;;;;;;;;6281884;28;19924;-64
2024/01/17 09:04:19;;;;;;;;;;;;;;;;;;6286752;28;19921;-66
2024/01/17 09:07:19;;;;;;;;;;;;;;;;;;6287392;28;19924;-66
2024/01/17 09:10:20;;;;;;;;;;;;;;;;;;6285955;28;19951;-69
2024/01/17 09:13:21;;;;;;;;;;;;;;;;;;6286893;28;19931;-68
2024/01/17 09:16:22;;;;;;;;;;;;;;;;;;6291877;28;20503;-68
2024/01/17 09:19:22;;;;;;;;;;;;;;;;;;6282719;28;19925;-68
2024/01/17 09:22:23;;;;;;;;;;;;;;;;;;6293695;28;19931;-68
2024/01/17 09:25:24;;;;;;;;;;;;;;;;;;6290524;28;19924;-69
2024/01/17 09:28:25;;;;;;;;;;;;;;;;;;6290655;28;19924;-69
2024/01/17 09:31:25;;;;;;;;;;;;;;;;;;6292346;28;20509;-71
2024/01/17 09:34:29;;;;;;;;;;;;;;;;;;6281555;28;19931;-69
2024/01/17 09:37:30;;;;;;;;;;;;;;;;;;6292612;28;19931;-69
2024/01/17 09:40:30;;;;;;;;;;;;;;;;;;6287729;28;20007;-67
2024/01/17 09:43:31;;;;;;;;;;;;;;;;;;6291757;28;19936;-69
2024/01/17 09:46:34;;;;;;;;;;;;;;;;;;6294768;28;20015;-68
2024/01/17 09:49:35;;;;;;;;;;;;;;;;;;6282098;28;19928;-69
2024/01/17 09:52:37;;;;;;;;;;;;;;;;;;6294402;28;19974;-69
2024/01/17 09:55:38;;;;;;;;;;;;;;;;;;6287589;28;19930;-69
2024/01/17 09:58:41;;;;;;;;;;;;;;;;;;6285854;28;19925;-69
2024/01/17 10:01:43;;;;;;;;;;;;;;;;;;6283951;28;20054;-69
2024/01/17 10:04:46;;;;;;;;;;;;;;;;;;6290557;28;19942;-69
2024/01/17 10:07:46;;;;;;;;;;;;;;;;;;6291918;28;19924;-69
2024/01/17 10:10:47;;;;;;;;;;;;;;;;;;6288751;28;19973;-69
2024/01/17 10:13:47;;;;;;;;;;;;;;;;;;6291148;28;19927;-69
2024/01/17 10:16:48;;;;;;;;;;;;;;;;;;6292830;28;19925;-69
2024/01/17 10:19:50;;;;;;;;;;;;;;;;;;6287678;28;19927;-69
2024/01/17 10:22:50;;;;;;;;;;;;;;;;;;6290419;28;20011;-69
2024/01/17 10:25:51;;;;;;;;;;;;;;;;;;6284685;28;20390;-69
2024/01/17 10:28:52;;;;;;;;;;;;;;;;;;6289558;28;19939;-69
2024/01/17 10:31:56;;;;;;;;;;;;;;;;;;6289991;28;19924;-69
2024/01/17 10:34:58;;;;;;;;;;;;;;;;;;6288674;28;19924;-69
2024/01/17 10:38:00;;;;;;;;;;;;;;;;;;6289705;28;19969;-69
2024/01/17 10:41:08;;;;;;;;;;;;;;;;;;6282260;28;19931;-69
2024/01/17 10:44:08;;;;;;;;;;;;;;;;;;6287790;28;20283;-69
2024/01/17 10:47:09;;;;;;;;;;;;;;;;;;6289791;28;19928;-69
2024/01/17 10:50:10;;;;;;;;;;;;;;;;;;6284075;28;19927;-69
2024/01/17 10:53:15;;;;;;;;;;;;;;;;;;6290779;28;19925;-69
2024/01/17 10:56:19;;;;;;;;;;;;;;;;;;6289686;28;19928;-69
2024/01/17 10:59:20;;;;;;;;;;;;;;;;;;6285608;28;19927;-69
2024/01/17 11:02:22;;;;;;;;;;;;;;;;;;6288536;28;19920;-67
2024/01/17 11:05:26;;;;;;;;;;;;;;;;;;6289736;28;19924;-68
2024/01/17 11:08:27;;;;;;;;;;;;;;;;;;6288151;28;19924;-70
2024/01/17 11:11:29;;;;;;;;;;;;;;;;;;6276291;28;19928;-68
2024/01/17 11:14:31;;;;;;;;;;;;;;;;;;6288154;28;19978;-69
2024/01/17 11:17:36;;;;;;;;;;;;;;;;;;6286203;28;19939;-69
2024/01/17 11:20:38;;;;;;;;;;;;;;;;;;6279833;28;20401;-69
2024/01/17 11:23:41;;;;;;;;;;;;;;;;;;6279043;28;19925;-68
2024/01/17 11:26:52;;;;;;;;;;;;;;;;;;6291650;28;19924;-70
2024/01/17 11:29:57;;;;;;;;;;;;;;;;;;6283308;28;19935;-70
2024/01/17 11:33:08;;;;;;;;;;;;;;;;;;6288349;28;19924;-70
2024/01/17 11:36:29;;;;;;;;;;;;;;;;;;6278866;28;19924;-70
2024/01/17 11:39:29;;;;;;;;;;;;;;;;;;6286130;28;19920;-69
2024/01/17 11:42:33;;;;;;;;;;;;;;;;;;6290454;28;20282;-70
2024/01/17 11:45:34;;;;;;;;;;;;;;;;;;6281449;28;19920;-70
2024/01/17 11:48:36;;;;;;;;;;;;;;;;;;6288385;28;20318;-70
2024/01/17 11:51:37;;;;;;;;;;;;;;;;;;6290532;28;19924;-70
2024/01/17 11:54:39;;;;;;;;;;;;;;;;;;6281949;28;20379;-69
2024/01/17 11:57:40;;;;;;;;;;;;;;;;;;6289926;28;19921;-70
2024/01/17 12:00:41;;;;;;;;;;;;;;;;;;6280297;28;19920;-70
2024/01/17 12:03:42;;;;;;;;;;;;;;;;;;6286900;28;20274;-70
2024/01/17 12:06:50;;;;;;;;;;;;;;;;;;6286122;28;20458;-70
2024/01/17 12:09:51;;;;;;;;;;;;;;;;;;6263684;28;19941;-70
2024/01/17 12:12:56;;;;;;;;;;;;;;;;;;6289056;28;19928;-69
2024/01/17 12:15:57;;;;;;;;;;;;;;;;;;6288672;28;20018;-69
2024/01/17 12:18:58;;;;;;;;;;;;;;;;;;6283443;28;20462;-69
2024/01/17 12:21:59;;;;;;;;;;;;;;;;;;6285588;28;20011;-70
2024/01/17 12:25:00;;;;;;;;;;;;;;;;;;6279239;28;19920;-69
2024/01/17 12:28:44;;;;;;;18.40;9.23;;;;;;;;;;6270384;27;20414;-70
2024/01/17 12:31:44;;;;;;;18.45;10.18;;;;;;;;;;6261562;28;20041;-71
2024/01/17 12:34:45;;;;;;;17.63;9.48;;;;;;;;;;6258932;28;20637;-70
2024/01/17 12:37:46;;;;;;;17.08;9.20;;;;;;;;;;6258071;28;20041;-70
2024/01/17 12:40:49;;;;;;;17.23;10.00;;;;;;;;;;6258875;28;20049;-70
2024/01/17 12:43:50;;;;;;;18.40;11.18;;;;;;;;;;6257228;28;20041;-70
2024/01/17 12:46:51;;;;;;;20.23;11.05;;;;;;;;;;6258195;28;20119;-70
2024/01/17 12:49:53;;;;;;;17.02;9.95;;;;;;;;;;6259410;28;20051;-71
2024/01/17 12:52:54;;;;;;;18.95;10.15;;;;;;;;;;6255539;28;20045;-70
2024/01/17 12:55:56;;;;;;;20.85;10.07;;;;;;;;;;6257195;28;20045;-71
2024/01/17 12:58:57;;;;;;;18.67;11.27;;;;;;;;;;6258910;28;20140;-71
2024/01/17 13:01:58;;;;;;;17.13;9.80;;;;;;;;;;6260451;28;20476;-71
2024/01/17 13:05:06;;;;;;;16.63;9.40;;;;;;;;;;6257476;28;20049;-71
2024/01/17 13:08:14;;;;;;;17.73;10.00;;;;;;;;;;6254779;28;20049;-71
2024/01/17 13:11:16;;;;;;;18.20;10.00;;;;;;;;;;6258870;28;20072;-71
2024/01/17 13:14:18;;;;;;;18.98;10.55;;;;;;;;;;6259444;28;20045;-70
2024/01/17 13:17:18;;;;;;;18.30;9.52;;;;;;;;;;6255596;28;20076;-71
2024/01/17 13:20:21;;;;;;;18.45;9.80;;;;;;;;;;6260105;28;20503;-71
2024/01/17 13:23:22;;;;;;;20.40;10.82;;;;;;;;;;6256742;28;20037;-70
2024/01/17 13:26:23;;;;;;;19.30;10.77;;;;;;;;;;6256201;28;20056;-70
2024/01/17 13:29:23;;;;;;;19.38;10.50;;;;;;;;;;6257800;28;20757;-71
2024/01/17 13:32:25;;;;;;;21.45;10.77;;;;;;;;;;6255885;28;20417;-71
2024/01/17 13:35:26;;;;;;;20.13;11.47;;;;;;;;;;6256717;28;20503;-70
2024/01/17 13:38:27;;;;;;;21.27;11.38;;;;;;;;;;6232912;28;20067;-70
2024/01/17 13:41:29;;;;;;;24.15;12.27;;;;;;;;;;6241542;28;20524;-70
2024/01/17 13:44:30;;;;;;;20.60;11.02;;;;;;;;;;6242332;28;20455;-66
2024/01/17 13:47:31;;;;;;;21.48;10.88;;;;;;;;;;6240043;28;20801;-71
2024/01/17 13:50:32;;;;;;;21.10;10.65;;;;;;;;;;6239579;28;20358;-71
2024/01/17 13:53:33;;;;;;;22.95;11.52;;;;;;;;;;6240409;28;20045;-71
2024/01/17 13:56:33;;;;;;;27.35;13.60;;;;;;;;;;6241601;28;20046;-71
2024/01/17 13:59:35;;;;;;;23.00;11.85;;;;;;;;;;6238329;28;20045;-71
2024/01/17 14:02:36;;;;;;;20.75;10.85;;;;;;;;;;6239937;28;20041;-71
2024/01/17 14:05:36;;;;;;;17.27;9.63;;;;;;;;;;6239520;28;20056;-71
2024/01/17 14:08:37;;;;;;;19.85;10.43;;;;;;;;;;6239083;28;20063;-71
2024/01/17 14:11:40;;;;;;;22.58;13.07;;;;;;;;;;6238883;28;20046;-71
2024/01/17 14:14:42;;;;;;;17.73;10.15;;;;;;;;;;6240160;28;20045;-71
2024/01/17 14:17:43;;;;;;;18.83;8.88;;;;;;;;;;6239386;28;20664;-70
2024/01/17 14:20:44;;;;;;;15.60;9.18;;;;;;;;;;6241539;28;20053;-69
2024/01/17 14:23:44;;;;;;;23.33;13.27;;;;;;;;;;6241831;28;20045;-72
2024/01/17 14:26:45;;;;;;;20.60;11.48;;;;;;;;;;6228974;28;20053;-70
2024/01/17 14:29:50;;;;;;;23.85;10.68;;;;;;;;;;6228707;28;20061;-70
2024/01/17 14:32:51;;;;;;;17.02;9.80;;;;;;;;;;6245389;28;20127;-71
2024/01/17 14:35:51;;;;;;;19.15;10.57;;;;;;;;;;6224451;28;20041;-70
2024/01/17 14:38:52;;;;;;;20.60;11.60;;;;;;;;;;6229295;28;21338;-71
2024/01/17 14:41:55;;;;;;;21.92;10.82;;;;;;;;;;6230683;28;20076;-72
2024/01/17 14:44:56;;;;;;;19.23;10.50;;;;;;;;;;6228859;28;20057;-68
2024/01/17 14:47:56;;;;;;;20.20;11.68;;;;;;;;;;6232521;28;20108;-71
2024/01/17 14:50:57;;;;;;;24.10;12.02;;;;;;;;;;6227521;28;20473;-69
2024/01/17 14:53:58;;;;;;;23.27;12.93;;;;;;;;;;6230692;28;20079;-70
2024/01/17 14:57:00;;;;;;;27.92;13.98;;;;;;;;;;6228692;28;20064;-70
2024/01/17 15:00:04;;;;;;;27.40;14.13;;;;;;;;;;6227892;28;20049;-70
2024/01/17 15:03:06;;;;;;;25.52;13.15;;;;;;;;;;6229695;28;20138;-71
2024/01/17 15:06:07;;;;;;;26.00;13.68;;;;;;;;;;6226082;28;20099;-71
2024/01/17 15:09:12;;;;;;;26.58;13.00;;;;;;;;;;6226667;28;20057;-70
2024/01/17 15:12:13;;;;;;;23.17;12.65;;;;;;;;;;6226682;28;20061;-71
2024/01/17 15:15:14;;;;;;;31.38;15.40;;;;;;;;;;6225999;28;20539;-71
2024/01/17 15:18:15;;;;;;;53.40;24.83;;;;;;;;;;6227997;28;20049;-70
2024/01/17 15:21:16;;;;;;;26.38;13.50;;;;;;;;;;6229377;28;20080;-70
2024/01/17 15:24:17;;;;;;;24.75;13.35;;;;;;;;;;6226188;28;20056;-70
2024/01/17 15:27:18;;;;;;;31.42;15.75;;;;;;;;;;6232841;28;20131;-70
2024/01/17 15:30:19;;;;;;;32.40;14.93;;;;;;;;;;6229148;28;20049;-71
2024/01/17 15:33:20;;;;;;;32.45;16.55;;;;;;;;;;6229778;28;20041;-71
2024/01/17 15:36:20;;;;;;;42.53;20.25;;;;;;;;;;6227925;28;20450;-70
2024/01/17 15:39:21;;;;;;;39.13;20.30;;;;;;;;;;6228754;28;20037;-70
2024/01/17 15:42:22;;;;;;;86.90;41.30;;;;;;;;;;6228911;28;20042;-71
2024/01/17 15:45:23;;;;;;;60.13;29.52;;;;;;;;;;6244975;28;20037;-70
2024/01/17 15:48:24;;;;;;;60.40;28.77;;;;;;;;;;6225726;28;20132;-71
2024/01/17 15:51:25;;;;;;;61.03;30.58;;;;;;;;;;6227784;28;20053;-70
2024/01/17 15:54:26;;;;;;;50.63;26.00;;;;;;;;;;6228191;28;20100;-70
2024/01/17 15:57:27;;;;;;;33.10;16.77;;;;;;;;;;6227825;28;20041;-70
2024/01/17 16:00:27;;;;;;;33.03;16.38;;;;;;;;;;6227238;28;20050;-70
2024/01/17 16:03:28;;;;;;;27.75;13.68;;;;;;;;;;6231724;28;20056;-70
2024/01/17 16:06:30;;;;;;;35.65;19.98;;;;;;;;;;6225546;28;20687;-70
2024/01/17 16:09:31;;;;;;;;;;;;;;;;;;6218940;28;20878;-70
2024/01/17 16:12:32;;;;;;;27.05;13.20;;;;;;;;;;6226690;28;20394;-70
2024/01/17 16:15:33;;;;;;;27.98;14.02;;;;;;;;;;6230251;28;20096;-70
2024/01/17 16:18:33;;;;;;;32.80;17.05;;;;;;;;;;6228852;28;20045;-70
2024/01/17 16:21:35;;;;;;;37.03;20.85;;;;;;;;;;6226690;28;20542;-70
2024/01/17 16:24:38;;;;;;;48.42;24.65;;;;;;;;;;6225659;28;20408;-71
2024/01/17 16:27:40;;;;;;;33.53;17.90;;;;;;;;;;6227977;28;20053;-70
2024/01/17 16:30:44;;;;;;;39.20;19.67;;;;;;;;;;6230892;28;20056;-70
2024/01/17 16:33:44;;;;;;;39.70;21.67;;;;;;;;;;6228721;28;20306;-70
2024/01/17 16:36:45;;;;;;;42.72;21.55;;;;;;;;;;6231013;28;20475;-70
2024/01/17 16:39:46;;;;;;;45.75;22.88;;;;;;;;;;6229909;28;20056;-70
2024/01/17 16:42:47;;;;;;;53.78;28.20;;;;;;;;;;6228532;28;20049;-70
2024/01/17 16:45:48;;;;;;;62.38;30.17;;;;;;;;;;6225579;28;20064;-70
2024/01/17 16:48:48;;;;;;;83.50;38.10;;;;;;;;;;6229641;28;20409;-71
2024/01/17 16:51:50;;;;;;;73.93;35.17;;;;;;;;;;6233222;28;20484;-70
2024/01/17 16:54:51;;;;;;;96.72;44.17;;;;;;;;;;6228520;28;20037;-71
2024/01/17 16:57:52;;;;;;;83.85;38.95;;;;;;;;;;6235750;28;21138;-70
2024/01/17 17:00:55;;;;;;;120.75;54.65;;;;;;;;;;6226630;28;20041;-70
2024/01/17 17:03:56;;;;;;;151.10;68.78;;;;;;;;;;6228390;28;20049;-70
2024/01/17 17:06:57;;;;;;;111.20;55.53;;;;;;;;;;6223748;28;20064;-69
2024/01/17 17:09:58;;;;;;;110.30;56.88;;;;;;;;;;6225610;28;20053;-69
2024/01/17 17:12:59;;;;;;;56.28;28.88;;;;;;;;;;6228763;28;20419;-70
2024/01/17 17:16:03;;;;;;;83.65;42.63;;;;;;;;;;6234309;28;20049;-69
2024/01/17 17:19:04;;;;;;;74.15;38.55;;;;;;;;;;6237534;28;20049;-70
2024/01/17 17:22:05;;;;;;;65.05;32.25;;;;;;;;;;6232866;28;20455;-69
2024/01/17 17:25:07;;;;;;;57.72;29.15;;;;;;;;;;6230511;28;20841;-69
2024/01/17 17:28:08;;;;;;;40.72;22.67;;;;;;;;;;6233049;28;20496;-70
2024/01/17 17:31:10;;;;;;;49.05;24.35;;;;;;;;;;6225347;28;20059;-70
2024/01/17 17:34:11;;;;;;;38.83;22.85;;;;;;;;;;6232057;28;20053;-71
2024/01/17 17:37:12;;;;;;;36.55;19.98;;;;;;;;;;6230864;28;20053;-70
2024/01/17 17:40:14;;;;;;;40.05;21.88;;;;;;;;;;6233313;28;20100;-70
2024/01/17 17:43:14;;;;;;;38.72;19.23;;;;;;;;;;6231034;28;20053;-71
2024/01/17 17:46:15;;;;;;;29.30;18.02;;;;;;;;;;6230051;28;20400;-71
2024/01/17 17:49:16;;;;;;;35.33;19.40;;;;;;;;;;6230849;28;20049;-71
2024/01/17 17:52:17;;;;;;;37.17;20.33;;;;;;;;;;6233117;28;20069;-70
2024/01/17 17:55:18;;;;;;;43.45;23.00;;;;;;;;;;6231466;28;20065;-70
2024/01/17 17:58:19;;;;;;;47.70;26.77;;;;;;;;;;6230720;28;20065;-70
2024/01/17 18:01:19;;;;;;;43.63;25.83;;;;;;;;;;6235231;28;21091;-71
2024/01/17 18:04:24;;;;;;;44.00;21.77;;;;;;;;;;6230908;28;20049;-71
2024/01/17 18:07:25;;;;;;;43.65;23.15;;;;;;;;;;6232225;28;20108;-71
2024/01/17 18:10:26;;;;;;;43.28;22.42;;;;;;;;;;6228974;28;20475;-72
2024/01/17 18:13:27;;;;;;;38.90;21.47;;;;;;;;;;6234971;28;20088;-71
2024/01/17 18:16:28;;;;;;;39.28;20.50;;;;;;;;;;6230360;28;20708;-71
2024/01/17 18:19:32;;;;;;;40.85;21.05;;;;;;;;;;6229301;28;20041;-71
2024/01/17 18:22:33;;;;;;;37.90;21.27;;;;;;;;;;6229392;28;20045;-71
2024/01/17 18:25:34;;;;;;;41.75;24.10;;;;;;;;;;6231968;28;20049;-71
2024/01/17 18:28:35;;;;;;;52.88;25.60;;;;;;;;;;6230441;28;20551;-72
2024/01/17 18:31:37;;;;;;;60.90;27.40;;;;;;;;;;6231388;28;20045;-72
2024/01/17 18:34:37;;;;;;;53.15;23.30;;;;;;;;;;6229277;28;20638;-71
2024/01/17 18:37:38;;;;;;;46.38;21.60;;;;;;;;;;6233575;28;20064;-71
2024/01/17 18:40:40;;;;;;;46.28;20.65;;;;;;;;;;6230123;28;20053;-72
2024/01/17 18:43:41;;;;;;;48.05;21.10;;;;;;;;;;6230172;28;20635;-71
2024/01/17 18:46:42;;;;;;;45.83;22.00;;;;;;;;;;6229130;28;20076;-71
2024/01/17 18:49:43;;;;;;;42.78;20.40;;;;;;;;;;6227623;28;20053;-71
2024/01/17 18:52:43;;;;;;;48.97;22.05;;;;;;;;;;6232792;28;20475;-71
2024/01/17 18:55:48;;;;;;;38.53;20.05;;;;;;;;;;6227796;28;20053;-71
2024/01/17 18:58:48;;;;;;;44.60;19.60;;;;;;;;;;6230243;28;20056;-71
2024/01/17 19:01:49;;;;;;;32.38;17.65;;;;;;;;;;6229980;28;20132;-71
2024/01/17 19:04:50;;;;;;;33.45;16.85;;;;;;;;;;6229924;28;20068;-70
2024/01/17 19:07:51;;;;;;;39.53;19.02;;;;;;;;;;6225813;28;20524;-71
2024/01/17 19:10:52;;;;;;;29.85;16.73;;;;;;;;;;6230868;28;20049;-71
2024/01/17 19:13:53;;;;;;;33.00;17.60;;;;;;;;;;6228071;28;20045;-72
2024/01/17 19:16:53;;;;;;;33.15;17.20;;;;;;;;;;6234205;28;20733;-72
2024/01/17 19:19:58;;;;;;;32.38;16.33;;;;;;;;;;6230094;28;20045;-70
2024/01/17 19:22:59;;;;;;;30.08;16.33;;;;;;;;;;6229396;28;20046;-72
2024/01/17 19:26:00;;;;;;;34.20;17.77;;;;;;;;;;6229189;28;20806;-71